sensor_id;sensor_type;location;lat;lon;timestamp;pressure;altitude;pressure_sealevel;temperature;humidity
79465;BME280;68932;47.410;8.232;2023-04-25T00:00:41;96316.63;;;9.12;64.72
79465;BME280;68932;47.410;8.232;2023-04-25T00:03:08;96315.61;;;9.09;64.51
79465;BME280;68932;47.410;8.232;2023-04-25T00:05:35;96315.36;;;9.08;64.53
79465;BME280;68932;47.410;8.232;2023-04-25T00:08:03;96314.45;;;9.08;64.69
79465;BME280;68932;47.410;8.232;2023-04-25T00:10:30;96311.86;;;9.08;64.58
79465;BME280;68932;47.410;8.232;2023-04-25T00:12:57;96314.33;;;9.07;64.37
79465;BME280;68932;47.410;8.232;2023-04-25T00:15:24;96311.40;;;9.04;64.40
79465;BME280;68932;47.410;8.232;2023-04-25T00:17:51;96317.46;;;9.03;64.37
79465;BME280;68932;47.410;8.232;2023-04-25T00:20:18;96321.59;;;9.01;64.46
79465;BME280;68932;47.410;8.232;2023-04-25T00:22:45;96338.48;;;8.99;64.49
79465;BME280;68932;47.410;8.232;2023-04-25T00:25:12;96333.56;;;8.95;64.43
79465;BME280;68932;47.410;8.232;2023-04-25T00:27:39;96339.02;;;8.89;64.39
79465;BME280;68932;47.410;8.232;2023-04-25T00:30:09;96329.48;;;8.83;64.45
79465;BME280;68932;47.410;8.232;2023-04-25T00:32:36;96322.73;;;8.77;64.48
79465;BME280;68932;47.410;8.232;2023-04-25T00:35:03;96321.18;;;8.74;64.41
79465;BME280;68932;47.410;8.232;2023-04-25T00:37:30;96326.90;;;8.72;64.36
79465;BME280;68932;47.410;8.232;2023-04-25T00:39:58;96320.78;;;8.70;64.44
79465;BME280;68932;47.410;8.232;2023-04-25T00:42:25;96321.64;;;8.68;64.43
79465;BME280;68932;47.410;8.232;2023-04-25T00:44:53;96317.66;;;8.64;64.43
79465;BME280;68932;47.410;8.232;2023-04-25T00:47:21;96312.59;;;8.62;64.57
79465;BME280;68932;47.410;8.232;2023-04-25T00:49:49;96304.64;;;8.56;64.57
79465;BME280;68932;47.410;8.232;2023-04-25T00:52:16;96298.27;;;8.49;64.77
79465;BME280;68932;47.410;8.232;2023-04-25T00:54:43;96297.67;;;8.43;64.62
79465;BME280;68932;47.410;8.232;2023-04-25T00:57:10;96291.16;;;8.38;64.74
79465;BME280;68932;47.410;8.232;2023-04-25T00:59:40;96286.27;;;8.32;64.81
79465;BME280;68932;47.410;8.232;2023-04-25T01:02:11;96292.12;;;8.29;64.99
79465;BME280;68932;47.410;8.232;2023-04-25T01:04:38;96291.16;;;8.25;65.24
79465;BME280;68932;47.410;8.232;2023-04-25T01:07:05;96290.95;;;8.23;65.41
79465;BME280;68932;47.410;8.232;2023-04-25T01:09:33;96292.21;;;8.19;65.46
79465;BME280;68932;47.410;8.232;2023-04-25T01:12:00;96286.96;;;8.17;65.80
79465;BME280;68932;47.410;8.232;2023-04-25T01:14:27;96288.83;;;8.15;66.06
79465;BME280;68932;47.410;8.232;2023-04-25T01:16:54;96285.02;;;8.15;66.23
79465;BME280;68932;47.410;8.232;2023-04-25T01:19:21;96281.14;;;8.15;66.33
79465;BME280;68932;47.410;8.232;2023-04-25T01:21:48;96280.77;;;8.16;66.62
79465;BME280;68932;47.410;8.232;2023-04-25T01:24:16;96282.08;;;8.17;66.58
79465;BME280;68932;47.410;8.232;2023-04-25T01:26:43;96272.85;;;8.19;66.65
79465;BME280;68932;47.410;8.232;2023-04-25T01:29:11;96272.19;;;8.19;66.68
79465;BME280;68932;47.410;8.232;2023-04-25T01:31:38;96275.19;;;8.16;66.73
79465;BME280;68932;47.410;8.232;2023-04-25T01:34:05;96281.98;;;8.13;66.60
79465;BME280;68932;47.410;8.232;2023-04-25T01:36:33;96271.64;;;8.11;66.79
79465;BME280;68932;47.410;8.232;2023-04-25T01:39:00;96270.16;;;8.07;67.00
79465;BME280;68932;47.410;8.232;2023-04-25T01:41:27;96271.42;;;8.01;66.89
79465;BME280;68932;47.410;8.232;2023-04-25T01:43:54;96269.73;;;7.95;66.78
79465;BME280;68932;47.410;8.232;2023-04-25T01:46:21;96267.23;;;7.91;66.86
79465;BME280;68932;47.410;8.232;2023-04-25T01:48:48;96262.80;;;7.87;66.80
79465;BME280;68932;47.410;8.232;2023-04-25T01:51:15;96263.00;;;7.81;66.72
79465;BME280;68932;47.410;8.232;2023-04-25T01:53:43;96266.58;;;7.77;66.53
79465;BME280;68932;47.410;8.232;2023-04-25T01:56:10;96267.33;;;7.74;66.59
79465;BME280;68932;47.410;8.232;2023-04-25T01:58:37;96264.09;;;7.70;66.77
79465;BME280;68932;47.410;8.232;2023-04-25T02:01:04;96258.40;;;7.67;66.70
79465;BME280;68932;47.410;8.232;2023-04-25T02:03:31;96259.31;;;7.60;66.75
79465;BME280;68932;47.410;8.232;2023-04-25T02:05:58;96256.39;;;7.54;66.61
79465;BME280;68932;47.410;8.232;2023-04-25T02:08:25;96257.27;;;7.48;66.70
79465;BME280;68932;47.410;8.232;2023-04-25T02:10:52;96260.45;;;7.45;66.44
79465;BME280;68932;47.410;8.232;2023-04-25T02:13:19;96262.89;;;7.43;66.38
79465;BME280;68932;47.410;8.232;2023-04-25T02:15:46;96260.08;;;7.40;66.67
79465;BME280;68932;47.410;8.232;2023-04-25T02:18:13;96260.56;;;7.36;66.95
79465;BME280;68932;47.410;8.232;2023-04-25T02:20:40;96259.99;;;7.31;67.11
79465;BME280;68932;47.410;8.232;2023-04-25T02:23:07;96259.73;;;7.24;67.00
79465;BME280;68932;47.410;8.232;2023-04-25T02:25:35;96261.80;;;7.16;67.02
79465;BME280;68932;47.410;8.232;2023-04-25T02:28:02;96261.92;;;7.09;67.06
79465;BME280;68932;47.410;8.232;2023-04-25T02:30:29;96263.03;;;7.08;67.09
79465;BME280;68932;47.410;8.232;2023-04-25T02:32:56;96259.02;;;7.08;66.99
79465;BME280;68932;47.410;8.232;2023-04-25T02:35:23;96257.48;;;7.07;67.11
79465;BME280;68932;47.410;8.232;2023-04-25T02:37:50;96255.17;;;7.05;67.03
79465;BME280;68932;47.410;8.232;2023-04-25T02:40:17;96252.55;;;7.03;66.99
79465;BME280;68932;47.410;8.232;2023-04-25T02:42:44;96247.19;;;6.99;67.01
79465;BME280;68932;47.410;8.232;2023-04-25T02:45:11;96245.55;;;6.97;67.22
79465;BME280;68932;47.410;8.232;2023-04-25T02:47:38;96243.19;;;6.94;67.41
79465;BME280;68932;47.410;8.232;2023-04-25T02:50:07;96240.14;;;6.90;67.36
79465;BME280;68932;47.410;8.232;2023-04-25T02:52:34;96240.62;;;6.87;67.32
79465;BME280;68932;47.410;8.232;2023-04-25T02:55:01;96235.89;;;6.85;67.47
79465;BME280;68932;47.410;8.232;2023-04-25T02:57:28;96237.23;;;6.83;67.35
79465;BME280;68932;47.410;8.232;2023-04-25T02:59:55;96235.78;;;6.81;67.35
79465;BME280;68932;47.410;8.232;2023-04-25T03:02:22;96235.17;;;6.79;67.39
79465;BME280;68932;47.410;8.232;2023-04-25T03:04:49;96236.17;;;6.80;67.48
79465;BME280;68932;47.410;8.232;2023-04-25T03:07:16;96236.55;;;6.83;67.45
79465;BME280;68932;47.410;8.232;2023-04-25T03:09:43;96234.17;;;6.85;67.56
79465;BME280;68932;47.410;8.232;2023-04-25T03:12:09;96232.35;;;6.86;67.35
79465;BME280;68932;47.410;8.232;2023-04-25T03:14:36;96233.06;;;6.86;67.50
79465;BME280;68932;47.410;8.232;2023-04-25T03:17:03;96235.70;;;6.85;67.57
79465;BME280;68932;47.410;8.232;2023-04-25T03:19:30;96232.45;;;6.85;67.55
79465;BME280;68932;47.410;8.232;2023-04-25T03:21:57;96233.91;;;6.84;67.61
79465;BME280;68932;47.410;8.232;2023-04-25T03:24:24;96233.52;;;6.84;67.75
79465;BME280;68932;47.410;8.232;2023-04-25T03:26:51;96225.72;;;6.84;67.95
79465;BME280;68932;47.410;8.232;2023-04-25T03:29:18;96226.20;;;6.84;68.02
79465;BME280;68932;47.410;8.232;2023-04-25T03:31:45;96225.30;;;6.85;68.28
79465;BME280;68932;47.410;8.232;2023-04-25T03:34:12;96217.04;;;6.86;68.44
79465;BME280;68932;47.410;8.232;2023-04-25T03:36:39;96211.57;;;6.87;68.46
79465;BME280;68932;47.410;8.232;2023-04-25T03:39:06;96211.84;;;6.88;68.47
79465;BME280;68932;47.410;8.232;2023-04-25T03:41:33;96204.15;;;6.88;68.41
79465;BME280;68932;47.410;8.232;2023-04-25T03:44:00;96207.25;;;6.89;68.35
79465;BME280;68932;47.410;8.232;2023-04-25T03:46:26;96208.52;;;6.91;68.26
79465;BME280;68932;47.410;8.232;2023-04-25T03:48:53;96203.39;;;6.92;68.31
79465;BME280;68932;47.410;8.232;2023-04-25T03:51:20;96200.23;;;6.90;68.18
79465;BME280;68932;47.410;8.232;2023-04-25T03:53:48;96197.30;;;6.86;68.00
79465;BME280;68932;47.410;8.232;2023-04-25T03:56:15;96199.75;;;6.84;67.96
79465;BME280;68932;47.410;8.232;2023-04-25T03:58:42;96199.29;;;6.80;67.89
79465;BME280;68932;47.410;8.232;2023-04-25T04:01:09;96196.39;;;6.76;68.08
79465;BME280;68932;47.410;8.232;2023-04-25T04:03:36;96202.45;;;6.74;68.13
79465;BME280;68932;47.410;8.232;2023-04-25T04:06:04;96194.84;;;6.70;68.12
79465;BME280;68932;47.410;8.232;2023-04-25T04:08:32;96193.73;;;6.63;68.29
79465;BME280;68932;47.410;8.232;2023-04-25T04:10:59;96195.27;;;6.58;68.27
79465;BME280;68932;47.410;8.232;2023-04-25T04:13:27;96200.48;;;6.52;68.46
79465;BME280;68932;47.410;8.232;2023-04-25T04:15:54;96202.67;;;6.48;68.67
79465;BME280;68932;47.410;8.232;2023-04-25T04:18:22;96203.77;;;6.44;68.93
79465;BME280;68932;47.410;8.232;2023-04-25T04:20:49;96202.19;;;6.45;69.00
79465;BME280;68932;47.410;8.232;2023-04-25T04:23:16;96205.28;;;6.45;69.23
79465;BME280;68932;47.410;8.232;2023-04-25T04:25:43;96204.92;;;6.45;69.32
79465;BME280;68932;47.410;8.232;2023-04-25T04:28:10;96206.94;;;6.44;69.28
79465;BME280;68932;47.410;8.232;2023-04-25T04:30:37;96205.17;;;6.41;69.42
79465;BME280;68932;47.410;8.232;2023-04-25T04:33:03;96200.39;;;6.39;69.53
79465;BME280;68932;47.410;8.232;2023-04-25T04:35:30;96201.52;;;6.38;69.61
79465;BME280;68932;47.410;8.232;2023-04-25T04:37:57;96205.47;;;6.39;69.54
79465;BME280;68932;47.410;8.232;2023-04-25T04:40:24;96205.98;;;6.39;69.62
79465;BME280;68932;47.410;8.232;2023-04-25T04:42:51;96205.92;;;6.40;69.73
79465;BME280;68932;47.410;8.232;2023-04-25T04:45:19;96207.83;;;6.43;69.79
79465;BME280;68932;47.410;8.232;2023-04-25T04:47:46;96207.74;;;6.45;69.90
79465;BME280;68932;47.410;8.232;2023-04-25T04:50:13;96207.45;;;6.47;70.01
79465;BME280;68932;47.410;8.232;2023-04-25T04:52:40;96208.67;;;6.49;69.96
79465;BME280;68932;47.410;8.232;2023-04-25T04:55:09;96209.38;;;6.55;70.03
79465;BME280;68932;47.410;8.232;2023-04-25T04:57:36;96207.80;;;6.58;69.96
79465;BME280;68932;47.410;8.232;2023-04-25T05:00:05;96208.33;;;6.60;69.93
79465;BME280;68932;47.410;8.232;2023-04-25T05:02:32;96208.03;;;6.60;69.96
79465;BME280;68932;47.410;8.232;2023-04-25T05:04:59;96206.81;;;6.63;70.14
79465;BME280;68932;47.410;8.232;2023-04-25T05:07:26;96205.27;;;6.68;70.14
79465;BME280;68932;47.410;8.232;2023-04-25T05:09:53;96201.20;;;6.74;70.23
79465;BME280;68932;47.410;8.232;2023-04-25T05:12:20;96201.73;;;6.79;70.37
79465;BME280;68932;47.410;8.232;2023-04-25T05:14:47;96204.06;;;6.87;70.37
79465;BME280;68932;47.410;8.232;2023-04-25T05:17:13;96200.50;;;6.94;70.48
79465;BME280;68932;47.410;8.232;2023-04-25T05:19:40;96198.80;;;7.01;70.65
79465;BME280;68932;47.410;8.232;2023-04-25T05:22:07;96189.52;;;7.07;70.73
79465;BME280;68932;47.410;8.232;2023-04-25T05:24:34;96183.45;;;7.12;70.84
79465;BME280;68932;47.410;8.232;2023-04-25T05:27:01;96187.15;;;7.20;70.90
79465;BME280;68932;47.410;8.232;2023-04-25T05:29:28;96190.96;;;7.28;70.93
79465;BME280;68932;47.410;8.232;2023-04-25T05:31:55;96192.96;;;7.37;71.14
79465;BME280;68932;47.410;8.232;2023-04-25T05:34:22;96198.89;;;7.46;70.79
79465;BME280;68932;47.410;8.232;2023-04-25T05:36:49;96203.92;;;7.49;70.39
79465;BME280;68932;47.410;8.232;2023-04-25T05:39:16;96210.41;;;7.50;70.44
79465;BME280;68932;47.410;8.232;2023-04-25T05:41:44;96215.23;;;7.52;70.45
79465;BME280;68932;47.410;8.232;2023-04-25T05:44:10;96217.92;;;7.53;70.31
79465;BME280;68932;47.410;8.232;2023-04-25T05:46:37;96220.66;;;7.53;70.36
79465;BME280;68932;47.410;8.232;2023-04-25T05:49:04;96227.41;;;7.52;70.48
79465;BME280;68932;47.410;8.232;2023-04-25T05:51:31;96237.06;;;7.48;70.65
79465;BME280;68932;47.410;8.232;2023-04-25T05:53:58;96248.09;;;7.42;70.77
79465;BME280;68932;47.410;8.232;2023-04-25T05:56:25;96256.59;;;7.38;70.99
79465;BME280;68932;47.410;8.232;2023-04-25T05:58:52;96265.66;;;7.32;71.29
79465;BME280;68932;47.410;8.232;2023-04-25T06:01:19;96276.39;;;7.28;71.56
79465;BME280;68932;47.410;8.232;2023-04-25T06:03:46;96290.13;;;7.23;71.76
79465;BME280;68932;47.410;8.232;2023-04-25T06:06:13;96293.48;;;7.14;71.96
79465;BME280;68932;47.410;8.232;2023-04-25T06:08:40;96295.81;;;7.04;72.31
79465;BME280;68932;47.410;8.232;2023-04-25T06:11:07;96293.88;;;6.97;72.94
79465;BME280;68932;47.410;8.232;2023-04-25T06:13:34;96287.11;;;6.91;73.23
79465;BME280;68932;47.410;8.232;2023-04-25T06:16:01;96285.46;;;6.89;73.50
79465;BME280;68932;47.410;8.232;2023-04-25T06:18:28;96279.30;;;6.90;73.67
79465;BME280;68932;47.410;8.232;2023-04-25T06:20:55;96286.48;;;6.92;73.75
79465;BME280;68932;47.410;8.232;2023-04-25T06:23:22;96286.72;;;6.94;73.87
79465;BME280;68932;47.410;8.232;2023-04-25T06:25:49;96278.23;;;6.96;74.03
79465;BME280;68932;47.410;8.232;2023-04-25T06:28:16;96267.70;;;7.00;74.08
79465;BME280;68932;47.410;8.232;2023-04-25T06:30:43;96267.02;;;7.08;74.34
79465;BME280;68932;47.410;8.232;2023-04-25T06:33:10;96266.12;;;7.17;74.30
79465;BME280;68932;47.410;8.232;2023-04-25T06:35:37;96258.43;;;7.26;74.24
79465;BME280;68932;47.410;8.232;2023-04-25T06:38:04;96258.46;;;7.33;74.14
79465;BME280;68932;47.410;8.232;2023-04-25T06:40:31;96258.77;;;7.39;73.91
79465;BME280;68932;47.410;8.232;2023-04-25T06:42:58;96257.40;;;7.39;73.53
79465;BME280;68932;47.410;8.232;2023-04-25T06:45:25;96264.23;;;7.38;73.66
79465;BME280;68932;47.410;8.232;2023-04-25T06:47:52;96265.02;;;7.37;73.64
79465;BME280;68932;47.410;8.232;2023-04-25T06:50:19;96263.80;;;7.34;73.43
79465;BME280;68932;47.410;8.232;2023-04-25T06:52:46;96264.05;;;7.36;73.74
79465;BME280;68932;47.410;8.232;2023-04-25T06:55:13;96265.15;;;7.40;73.97
79465;BME280;68932;47.410;8.232;2023-04-25T06:57:40;96263.76;;;7.40;73.92
79465;BME280;68932;47.410;8.232;2023-04-25T07:00:09;96259.16;;;7.36;73.79
79465;BME280;68932;47.410;8.232;2023-04-25T07:02:36;96262.16;;;7.33;73.85
79465;BME280;68932;47.410;8.232;2023-04-25T07:05:03;96261.21;;;7.31;73.83
79465;BME280;68932;47.410;8.232;2023-04-25T07:07:31;96269.05;;;7.31;74.01
79465;BME280;68932;47.410;8.232;2023-04-25T07:09:57;96273.07;;;7.31;73.89
79465;BME280;68932;47.410;8.232;2023-04-25T07:12:24;96276.08;;;7.33;74.26
79465;BME280;68932;47.410;8.232;2023-04-25T07:14:51;96280.36;;;7.34;74.51
79465;BME280;68932;47.410;8.232;2023-04-25T07:17:18;96282.53;;;7.33;74.69
79465;BME280;68932;47.410;8.232;2023-04-25T07:19:45;96277.00;;;7.32;74.85
79465;BME280;68932;47.410;8.232;2023-04-25T07:22:12;96281.40;;;7.31;74.96
79465;BME280;68932;47.410;8.232;2023-04-25T07:24:40;96283.83;;;7.32;75.06
79465;BME280;68932;47.410;8.232;2023-04-25T07:27:07;96288.98;;;7.33;75.18
79465;BME280;68932;47.410;8.232;2023-04-25T07:29:33;96287.05;;;7.36;75.17
79465;BME280;68932;47.410;8.232;2023-04-25T07:32:00;96289.30;;;7.39;75.22
79465;BME280;68932;47.410;8.232;2023-04-25T07:34:27;96285.34;;;7.41;75.33
79465;BME280;68932;47.410;8.232;2023-04-25T07:36:54;96283.29;;;7.45;75.48
79465;BME280;68932;47.410;8.232;2023-04-25T07:39:21;96284.95;;;7.52;75.49
79465;BME280;68932;47.410;8.232;2023-04-25T07:41:48;96285.31;;;7.60;75.46
79465;BME280;68932;47.410;8.232;2023-04-25T07:44:15;96289.69;;;7.68;75.51
79465;BME280;68932;47.410;8.232;2023-04-25T07:46:42;96293.09;;;7.75;75.64
79465;BME280;68932;47.410;8.232;2023-04-25T07:49:09;96301.59;;;7.78;75.51
79465;BME280;68932;47.410;8.232;2023-04-25T07:51:36;96303.80;;;7.81;75.65
79465;BME280;68932;47.410;8.232;2023-04-25T07:54:04;96311.16;;;7.86;75.62
79465;BME280;68932;47.410;8.232;2023-04-25T07:56:31;96314.54;;;7.90;75.87
79465;BME280;68932;47.410;8.232;2023-04-25T07:58:58;96316.95;;;7.96;75.95
79465;BME280;68932;47.410;8.232;2023-04-25T08:01:25;96314.62;;;8.06;76.05
79465;BME280;68932;47.410;8.232;2023-04-25T08:03:52;96323.08;;;8.20;76.15
79465;BME280;68932;47.410;8.232;2023-04-25T08:06:19;96322.20;;;8.33;75.79
79465;BME280;68932;47.410;8.232;2023-04-25T08:08:46;96322.98;;;8.46;75.65
79465;BME280;68932;47.410;8.232;2023-04-25T08:11:13;96319.33;;;8.61;75.74
79465;BME280;68932;47.410;8.232;2023-04-25T08:13:39;96322.48;;;8.73;75.59
79465;BME280;68932;47.410;8.232;2023-04-25T08:16:06;96326.86;;;8.80;75.39
79465;BME280;68932;47.410;8.232;2023-04-25T08:18:33;96329.60;;;8.82;75.09
79465;BME280;68932;47.410;8.232;2023-04-25T08:21:00;96331.86;;;8.82;74.80
79465;BME280;68932;47.410;8.232;2023-04-25T08:23:27;96335.34;;;8.82;75.18
79465;BME280;68932;47.410;8.232;2023-04-25T08:25:54;96337.70;;;8.84;75.09
79465;BME280;68932;47.410;8.232;2023-04-25T08:28:21;96335.34;;;8.85;75.43
79465;BME280;68932;47.410;8.232;2023-04-25T08:30:48;96341.13;;;8.87;75.36
79465;BME280;68932;47.410;8.232;2023-04-25T08:33:15;96342.30;;;8.90;75.43
79465;BME280;68932;47.410;8.232;2023-04-25T08:35:44;96352.15;;;8.97;75.53
79465;BME280;68932;47.410;8.232;2023-04-25T08:38:11;96357.46;;;9.03;75.70
79465;BME280;68932;47.410;8.232;2023-04-25T08:40:39;96361.59;;;9.09;75.69
79465;BME280;68932;47.410;8.232;2023-04-25T08:43:07;96366.98;;;9.17;75.76
79465;BME280;68932;47.410;8.232;2023-04-25T08:45:35;96374.05;;;9.24;75.84
79465;BME280;68932;47.410;8.232;2023-04-25T08:48:04;96379.01;;;9.31;75.56
79465;BME280;68932;47.410;8.232;2023-04-25T08:50:32;96382.88;;;9.37;75.39
79465;BME280;68932;47.410;8.232;2023-04-25T08:53:01;96386.13;;;9.38;75.34
79465;BME280;68932;47.410;8.232;2023-04-25T08:55:31;96386.66;;;9.46;75.80
79465;BME280;68932;47.410;8.232;2023-04-25T08:57:58;96394.40;;;9.55;75.53
79465;BME280;68932;47.410;8.232;2023-04-25T09:00:27;96400.09;;;9.58;74.80
79465;BME280;68932;47.410;8.232;2023-04-25T09:02:54;96401.30;;;9.64;74.75
79465;BME280;68932;47.410;8.232;2023-04-25T09:05:22;96400.77;;;9.71;73.89
79465;BME280;68932;47.410;8.232;2023-04-25T09:07:49;96401.74;;;9.77;73.27
79465;BME280;68932;47.410;8.232;2023-04-25T09:10:16;96407.68;;;9.85;73.35
79465;BME280;68932;47.410;8.232;2023-04-25T09:12:43;96410.38;;;9.93;72.56
79465;BME280;68932;47.410;8.232;2023-04-25T09:15:12;96415.55;;;10.04;71.88
79465;BME280;68932;47.410;8.232;2023-04-25T09:17:41;96415.49;;;10.15;71.60
79465;BME280;68932;47.410;8.232;2023-04-25T09:20:12;96416.71;;;10.24;70.96
79465;BME280;68932;47.410;8.232;2023-04-25T09:22:39;96416.94;;;10.34;70.75
79465;BME280;68932;47.410;8.232;2023-04-25T09:25:10;96421.40;;;10.42;70.12
79465;BME280;68932;47.410;8.232;2023-04-25T09:27:49;96421.96;;;10.44;69.38
79465;BME280;68932;47.410;8.232;2023-04-25T09:30:17;96421.33;;;10.41;67.87
79465;BME280;68932;47.410;8.232;2023-04-25T09:32:44;96425.92;;;10.35;67.94
79465;BME280;68932;47.410;8.232;2023-04-25T09:35:24;96426.06;;;10.36;68.09
79465;BME280;68932;47.410;8.232;2023-04-25T09:37:51;96425.20;;;10.38;67.90
79465;BME280;68932;47.410;8.232;2023-04-25T09:40:18;96430.91;;;10.42;67.44
79465;BME280;68932;47.410;8.232;2023-04-25T09:42:45;96436.20;;;10.44;66.56
79465;BME280;68932;47.410;8.232;2023-04-25T09:45:13;96438.23;;;10.39;65.68
79465;BME280;68932;47.410;8.232;2023-04-25T09:47:40;96441.98;;;10.34;65.20
79465;BME280;68932;47.410;8.232;2023-04-25T09:50:14;96441.04;;;10.25;64.48
79465;BME280;68932;47.410;8.232;2023-04-25T09:52:41;96443.27;;;10.13;64.76
79465;BME280;68932;47.410;8.232;2023-04-25T09:55:09;96448.02;;;10.08;65.83
79465;BME280;68932;47.410;8.232;2023-04-25T09:57:36;96450.38;;;10.12;66.08
79465;BME280;68932;47.410;8.232;2023-04-25T10:00:06;96457.31;;;10.20;65.26
79465;BME280;68932;47.410;8.232;2023-04-25T10:02:35;96449.35;;;10.29;65.41
79465;BME280;68932;47.410;8.232;2023-04-25T10:05:05;96452.44;;;10.37;64.66
79465;BME280;68932;47.410;8.232;2023-04-25T10:07:34;96454.41;;;10.46;64.77
79465;BME280;68932;47.410;8.232;2023-04-25T10:10:05;96458.21;;;10.58;63.61
79465;BME280;68932;47.410;8.232;2023-04-25T10:12:33;96459.21;;;10.62;62.20
79465;BME280;68932;47.410;8.232;2023-04-25T10:15:00;96461.39;;;10.65;62.80
79465;BME280;68932;47.410;8.232;2023-04-25T10:17:28;96457.20;;;10.74;62.63
79465;BME280;68932;47.410;8.232;2023-04-25T10:19:55;96460.95;;;10.81;62.10
79465;BME280;68932;47.410;8.232;2023-04-25T10:22:29;96467.27;;;10.90;62.66
79465;BME280;68932;47.410;8.232;2023-04-25T10:24:57;96470.80;;;10.96;63.01
79465;BME280;68932;47.410;8.232;2023-04-25T10:27:25;96472.89;;;10.95;60.66
79465;BME280;68932;47.410;8.232;2023-04-25T10:30:02;96475.94;;;10.82;61.07
79465;BME280;68932;47.410;8.232;2023-04-25T10:32:31;96477.37;;;10.74;61.48
79465;BME280;68932;47.410;8.232;2023-04-25T10:35:11;96478.02;;;10.63;61.01
79465;BME280;68932;47.410;8.232;2023-04-25T10:37:38;96479.49;;;10.50;60.59
79465;BME280;68932;47.410;8.232;2023-04-25T10:40:10;96474.34;;;10.42;61.07
79465;BME280;68932;47.410;8.232;2023-04-25T10:42:37;96480.75;;;10.41;61.85
79465;BME280;68932;47.410;8.232;2023-04-25T10:45:07;96483.83;;;10.42;61.88
79465;BME280;68932;47.410;8.232;2023-04-25T10:47:43;96484.77;;;10.50;61.46
79465;BME280;68932;47.410;8.232;2023-04-25T10:50:13;96479.58;;;10.64;60.41
79465;BME280;68932;47.410;8.232;2023-04-25T10:52:41;96479.60;;;10.72;59.83
79465;BME280;68932;47.410;8.232;2023-04-25T10:55:09;96480.75;;;10.73;59.08
79465;BME280;68932;47.410;8.232;2023-04-25T10:57:42;96484.55;;;10.72;59.00
79465;BME280;68932;47.410;8.232;2023-04-25T11:00:12;96485.70;;;10.73;59.16
79465;BME280;68932;47.410;8.232;2023-04-25T11:02:45;96488.31;;;10.80;59.48
79465;BME280;68932;47.410;8.232;2023-04-25T11:05:19;96486.17;;;11.00;59.24
79465;BME280;68932;47.410;8.232;2023-04-25T11:07:50;96486.57;;;11.15;59.39
79465;BME280;68932;47.410;8.232;2023-04-25T11:10:18;96490.52;;;11.26;60.19
79465;BME280;68932;47.410;8.232;2023-04-25T11:12:46;96482.34;;;11.34;59.25
79465;BME280;68932;47.410;8.232;2023-04-25T11:15:13;96489.98;;;11.44;59.01
79465;BME280;68932;47.410;8.232;2023-04-25T11:17:41;96491.15;;;11.45;58.26
79465;BME280;68932;47.410;8.232;2023-04-25T11:20:09;96499.23;;;11.45;58.58
79465;BME280;68932;47.410;8.232;2023-04-25T11:22:36;96497.26;;;11.41;58.11
79465;BME280;68932;47.410;8.232;2023-04-25T11:25:09;96497.25;;;11.38;58.35
79465;BME280;68932;47.410;8.232;2023-04-25T11:27:39;96491.69;;;11.40;58.43
79465;BME280;68932;47.410;8.232;2023-04-25T11:30:16;96484.81;;;11.50;58.52
79465;BME280;68932;47.410;8.232;2023-04-25T11:32:44;96477.25;;;11.68;58.21
79465;BME280;68932;47.410;8.232;2023-04-25T11:35:11;96475.44;;;11.94;58.41
79465;BME280;68932;47.410;8.232;2023-04-25T11:37:40;96471.24;;;12.18;57.98
79465;BME280;68932;47.410;8.232;2023-04-25T11:40:09;96462.77;;;12.42;56.60
79465;BME280;68932;47.410;8.232;2023-04-25T11:42:38;96465.21;;;12.66;55.20
79465;BME280;68932;47.410;8.232;2023-04-25T11:45:07;96462.09;;;12.83;53.12
79465;BME280;68932;47.410;8.232;2023-04-25T11:47:34;96455.16;;;13.00;53.04
79465;BME280;68932;47.410;8.232;2023-04-25T11:50:02;96461.77;;;13.01;51.59
79465;BME280;68932;47.410;8.232;2023-04-25T11:52:40;96467.21;;;12.95;51.24
79465;BME280;68932;47.410;8.232;2023-04-25T11:55:12;96472.33;;;12.89;50.90
79465;BME280;68932;47.410;8.232;2023-04-25T11:57:40;96475.13;;;12.91;50.74
79465;BME280;68932;47.410;8.232;2023-04-25T12:00:12;96471.92;;;12.91;51.13
79465;BME280;68932;47.410;8.232;2023-04-25T12:02:42;96477.16;;;12.96;51.07
79465;BME280;68932;47.410;8.232;2023-04-25T12:05:10;96471.71;;;13.03;50.97
79465;BME280;68932;47.410;8.232;2023-04-25T12:07:37;96469.16;;;13.10;51.03
79465;BME280;68932;47.410;8.232;2023-04-25T12:10:10;96475.05;;;13.17;50.63
79465;BME280;68932;47.410;8.232;2023-04-25T12:12:38;96468.17;;;13.19;50.45
79465;BME280;68932;47.410;8.232;2023-04-25T12:15:14;96478.39;;;13.28;49.87
79465;BME280;68932;47.410;8.232;2023-04-25T12:17:41;96470.86;;;13.19;47.76
79465;BME280;68932;47.410;8.232;2023-04-25T12:20:12;96480.66;;;13.07;48.83
79465;BME280;68932;47.410;8.232;2023-04-25T12:22:41;96476.76;;;12.95;48.85
79465;BME280;68932;47.410;8.232;2023-04-25T12:25:09;96482.98;;;12.73;49.84
79465;BME280;68932;47.410;8.232;2023-04-25T12:27:36;96481.89;;;12.60;51.03
79465;BME280;68932;47.410;8.232;2023-04-25T12:30:05;96485.98;;;12.59;51.59
79465;BME280;68932;47.410;8.232;2023-04-25T12:32:32;96489.30;;;12.62;49.75
79465;BME280;68932;47.410;8.232;2023-04-25T12:34:59;96484.10;;;12.63;49.93
79465;BME280;68932;47.410;8.232;2023-04-25T12:37:28;96490.11;;;12.69;49.32
79465;BME280;68932;47.410;8.232;2023-04-25T12:39:55;96488.47;;;12.83;50.45
79465;BME280;68932;47.410;8.232;2023-04-25T12:42:22;96490.36;;;13.02;50.80
79465;BME280;68932;47.410;8.232;2023-04-25T12:44:49;96494.23;;;13.13;50.10
79465;BME280;68932;47.410;8.232;2023-04-25T12:47:16;96495.08;;;13.11;50.38
79465;BME280;68932;47.410;8.232;2023-04-25T12:49:42;96497.48;;;13.08;51.00
79465;BME280;68932;47.410;8.232;2023-04-25T12:52:09;96497.39;;;13.05;50.18
79465;BME280;68932;47.410;8.232;2023-04-25T12:54:36;96505.02;;;13.06;50.27
79465;BME280;68932;47.410;8.232;2023-04-25T12:57:03;96494.55;;;13.17;50.95
79465;BME280;68932;47.410;8.232;2023-04-25T12:59:30;96498.73;;;13.33;50.51
79465;BME280;68932;47.410;8.232;2023-04-25T13:01:57;96498.94;;;13.47;49.86
79465;BME280;68932;47.410;8.232;2023-04-25T13:04:24;96487.84;;;13.58;49.45
79465;BME280;68932;47.410;8.232;2023-04-25T13:06:51;96488.33;;;13.67;48.90
79465;BME280;68932;47.410;8.232;2023-04-25T13:09:18;96489.46;;;13.78;48.05